Time;durP1;ratioP1;P1;durP2;ratioP2;P2;SDS_P1;SDS_P2;PMS_P1;PMS_P2;Temp;Humidity;BMP_temperature;BMP_pressure;BME280_temperature;BME280_humidity;BME280_pressure;Samples;Min_cycle;Max_cycle;Signal;HPM_P1;HPM_P2
2023/06/26 00:01:32;;;;;;;9.90;5.10;;;;;;;15.06;84.13;100654.08;105576;1256;83647;-57
2023/06/26 00:04:04;;;;;;;9.70;5.40;;;;;;;15.06;84.10;100653.25;105630;1254;74195;-58
2023/06/26 00:06:33;;;;;;;6.20;5.60;;;;;;;15.05;84.40;100651.00;105562;1254;69059;-57
2023/06/26 00:09:01;;;;;;;8.50;5.60;;;;;;;15.05;84.56;100651.88;105625;1257;71846;-58
2023/06/26 00:11:33;;;;;;;7.40;5.00;;;;;;;15.05;84.60;100645.88;105601;1254;75020;-59
2023/06/26 00:14:01;;;;;;;5.70;5.00;;;;;;;15.06;84.80;100645.33;105587;1255;83791;-61
2023/06/26 00:16:30;;;;;;;5.50;4.60;;;;;;;15.03;84.72;100647.38;105501;1252;73644;-58
2023/06/26 00:19:00;;;;;;;6.00;4.80;;;;;;;15.02;84.86;100647.29;105600;1258;69190;-57
2023/06/26 00:21:28;;;;;;;9.10;4.70;;;;;;;15.02;84.96;100646.05;105606;1254;69067;-58
2023/06/26 00:23:59;;;;;;;6.80;5.00;;;;;;;15.01;85.05;100644.65;105617;1253;74686;-59
2023/06/26 00:26:28;;;;;;;7.00;5.30;;;;;;;15.01;85.18;100643.62;105553;1257;83381;-58
2023/06/26 00:28:58;;;;;;;8.10;4.90;;;;;;;15.01;85.11;100644.36;105597;1254;72827;-57
2023/06/26 00:31:26;;;;;;;6.40;5.70;;;;;;;14.98;85.08;100639.71;105593;1257;69253;-59
2023/06/26 00:33:55;;;;;;;7.30;5.10;;;;;;;14.97;85.29;100639.61;105434;1254;69230;-61
2023/06/26 00:36:26;;;;;;;9.70;5.30;;;;;;;14.95;85.31;100638.63;105619;1255;73950;-60
2023/06/26 00:38:56;;;;;;;;;;;;;;;14.93;85.47;100640.33;105614;1254;81696;-59
2023/06/26 00:41:25;;;;;;;6.30;4.80;;;;;;;14.90;85.66;100641.89;105640;1255;72946;-59
2023/06/26 00:43:54;;;;;;;6.20;5.10;;;;;;;14.88;85.76;100643.04;105574;1254;69219;-60
2023/06/26 00:46:23;;;;;;;7.00;4.90;;;;;;;14.87;85.86;100642.90;105487;1257;69355;-59
2023/06/26 00:48:53;;;;;;;8.20;4.90;;;;;;;14.86;85.92;100641.73;105590;1253;75028;-58
2023/06/26 00:51:21;;;;;;;6.60;5.30;;;;;;;14.85;86.18;100644.06;105491;1257;82569;-59
2023/06/26 00:53:51;;;;;;;7.20;4.40;;;;;;;14.84;86.14;100644.84;105605;1253;72673;-57
2023/06/26 00:56:20;;;;;;;10.60;5.40;;;;;;;14.83;86.37;100641.55;105535;1257;69436;-58
2023/06/26 00:58:49;;;;;;;7.30;5.20;;;;;;;14.82;86.23;100640.86;105586;1257;69224;-61
2023/06/26 01:01:21;;;;;;;7.70;5.10;;;;;;;14.81;86.22;100638.30;105614;1256;74951;-56
2023/06/26 01:03:52;;;;;;;6.10;4.90;;;;;;;14.78;86.37;100636.67;105536;1255;83571;-57
2023/06/26 01:06:23;;;;;;;5.90;5.20;;;;;;;14.78;86.50;100634.10;105435;1257;73500;-58
2023/06/26 01:08:51;;;;;;;;;;;;;;;14.78;86.61;100633.91;105543;1257;69282;-59
2023/06/26 01:11:20;;;;;;;5.90;4.80;;;;;;;14.75;86.70;100630.35;105496;1257;69237;-59
2023/06/26 01:13:50;;;;;;;6.10;4.90;;;;;;;14.74;86.66;100627.77;105397;1259;75422;-54
2023/06/26 01:16:20;;;;;;;7.00;5.00;;;;;;;14.72;86.83;100629.41;105432;1257;83063;-56
2023/06/26 01:18:52;;;;;;;8.10;5.10;;;;;;;14.71;86.81;100622.96;105478;1257;72832;-58
2023/06/26 01:21:20;;;;;;;6.10;4.90;;;;;;;14.70;86.87;100623.73;105512;1257;69297;-59
2023/06/26 01:24:06;;;;;;;6.60;5.10;;;;;;;14.68;86.69;100620.17;105468;1257;69192;-58
2023/06/26 01:26:35;;;;;;;12.40;5.00;;;;;;;14.65;86.87;100617.82;105461;1254;74995;-58
2023/06/26 01:29:06;;;;;;;8.80;4.80;;;;;;;14.63;86.99;100619.50;105467;1257;83426;-58
2023/06/26 01:31:35;;;;;;;8.40;4.90;;;;;;;14.62;87.01;100617.46;105405;1254;72259;-61
2023/06/26 01:34:04;;;;;;;11.60;4.90;;;;;;;14.59;86.95;100615.51;105489;1257;69202;-61
2023/06/26 01:36:33;;;;;;;12.20;6.30;;;;;;;14.55;86.90;100615.52;105519;1254;69102;-55
2023/06/26 01:39:06;;;;;;;8.40;5.80;;;;;;;14.53;86.99;100617.04;105513;1257;74959;-58
2023/06/26 01:41:36;;;;;;;7.70;4.80;;;;;;;14.50;87.09;100619.44;105503;1253;83742;-57
2023/06/26 01:44:21;;;;;;;6.70;5.00;;;;;;;14.47;87.18;100617.81;105458;1254;73720;-56
2023/06/26 01:47:01;;;;;;;9.00;5.50;;;;;;;14.45;87.37;100611.27;105469;1258;69201;-53
2023/06/26 01:49:39;;;;;;;9.40;6.20;;;;;;;14.45;87.44;100608.59;105451;1257;69203;-55
2023/06/26 01:52:20;;;;;;;7.70;5.00;;;;;;;14.45;87.64;100606.46;105462;1253;74301;-61
2023/06/26 01:55:17;;;;;;;8.20;5.30;;;;;;;14.44;87.56;100606.91;105524;1253;83645;-56
2023/06/26 01:57:47;;;;;;;8.20;5.00;;;;;;;14.41;87.61;100605.98;105418;1257;73804;-59
2023/06/26 02:00:18;;;;;;;6.00;5.30;;;;;;;14.40;87.72;100602.15;105447;1257;69218;-58
2023/06/26 02:02:47;;;;;;;8.20;5.90;;;;;;;14.39;87.75;100602.41;105437;1254;69196;-56
2023/06/26 02:05:19;;;;;;;7.70;5.80;;;;;;;14.36;87.79;100602.89;105478;1254;74667;-57
2023/06/26 02:07:47;;;;;;;13.40;5.90;;;;;;;14.37;88.20;100601.09;105491;1257;83306;-58
2023/06/26 02:10:16;;;;;;;9.20;6.20;;;;;;;14.37;88.38;100603.19;105407;1253;73834;-58
2023/06/26 02:12:45;;;;;;;8.60;5.80;;;;;;;14.37;88.15;100597.22;105490;1254;69338;-59
2023/06/26 02:15:15;;;;;;;6.80;4.80;;;;;;;14.35;88.03;100594.86;105491;1257;69112;-55
2023/06/26 02:17:47;;;;;;;10.60;5.90;;;;;;;14.32;88.07;100594.63;105536;1254;74741;-55
2023/06/26 02:20:17;;;;;;;9.60;5.50;;;;;;;14.32;88.24;100597.15;105454;1253;83132;-59
2023/06/26 02:22:45;;;;;;;9.60;5.60;;;;;;;14.32;88.43;100592.55;105460;1258;73687;-58
2023/06/26 02:25:18;;;;;;;9.70;5.10;;;;;;;14.30;88.65;100596.67;105414;1257;69200;-57
2023/06/26 02:27:49;;;;;;;6.90;5.40;;;;;;;14.31;88.65;100599.84;105404;1257;69349;-56
2023/06/26 02:30:22;;;;;;;7.30;5.00;;;;;;;14.31;88.70;100598.42;105430;1253;73284;-60
2023/06/26 02:32:51;;;;;;;5.80;4.70;;;;;;;14.30;88.57;100597.05;105451;1253;82456;-56
2023/06/26 02:35:22;;;;;;;8.50;5.30;;;;;;;14.27;88.63;100600.85;105468;1254;73920;-60
2023/06/26 02:37:51;;;;;;;6.10;4.90;;;;;;;14.27;88.77;100601.41;105456;1256;69160;-54
2023/06/26 02:40:23;;;;;;;9.20;4.90;;;;;;;14.26;88.78;100600.20;105505;1258;69205;-58
2023/06/26 02:42:52;;;;;;;8.20;5.10;;;;;;;14.24;88.76;100597.15;105485;1256;73978;-58
2023/06/26 02:45:22;;;;;;;8.60;5.70;;;;;;;14.24;88.76;100598.04;105426;1253;82500;-58
2023/06/26 02:47:51;;;;;;;9.10;5.90;;;;;;;14.24;88.97;100595.93;105495;1254;73398;-55
2023/06/26 02:50:20;;;;;;;8.40;5.10;;;;;;;14.24;89.06;100597.33;105500;1255;69224;-55
2023/06/26 02:53:24;;;;;;;10.20;5.10;;;;;;;14.24;89.12;100597.17;105347;1257;69209;-58
2023/06/26 02:55:56;;;;;;;6.70;5.30;;;;;;;14.23;89.18;100594.20;105444;1257;74915;-54
2023/06/26 02:58:27;;;;;;;9.40;5.20;;;;;;;14.24;89.19;100594.88;105446;1257;83324;-59
2023/06/26 03:00:59;;;;;;;7.60;5.10;;;;;;;14.23;89.14;100593.67;105454;1254;73847;-59
2023/06/26 03:03:40;;;;;;;9.60;6.10;;;;;;;14.22;89.16;100592.49;105388;1254;69271;-57
2023/06/26 03:06:13;;;;;;;7.40;5.10;;;;;;;14.22;89.22;100594.64;105333;1255;69164;-55
2023/06/26 03:08:42;;;;;;;11.90;5.90;;;;;;;14.23;89.59;100597.00;105440;1256;75207;-56
2023/06/26 03:11:15;;;;;;;8.10;5.40;;;;;;;14.24;89.51;100594.52;105411;1252;82357;-58
2023/06/26 03:13:47;;;;;;;8.30;5.90;;;;;;;14.23;89.60;100599.80;105432;1253;73742;-54
2023/06/26 03:16:15;;;;;;;8.10;5.20;;;;;;;14.25;89.64;100599.77;105397;1253;69027;-57
2023/06/26 03:18:44;;;;;;;10.40;5.60;;;;;;;14.26;89.78;100602.32;105265;1257;69194;-55
2023/06/26 03:21:13;;;;;;;10.20;5.90;;;;;;;14.26;89.79;100597.73;105459;1253;74325;-55
2023/06/26 03:23:42;;;;;;;8.80;5.90;;;;;;;14.27;90.08;100595.05;105322;1253;81898;-55
2023/06/26 03:26:14;;;;;;;10.70;6.60;;;;;;;14.32;90.33;100592.23;105306;1257;72793;-61
2023/06/26 03:28:46;;;;;;;11.20;5.80;;;;;;;14.35;90.61;100591.88;105439;1254;69129;-54
2023/06/26 03:31:15;;;;;;;8.00;6.20;;;;;;;14.42;91.16;100594.70;105370;1257;69252;-57
2023/06/26 03:33:46;;;;;;;10.50;7.10;;;;;;;14.49;91.56;100592.94;105398;1257;74875;-58
2023/06/26 03:36:17;;;;;;;9.10;7.00;;;;;;;14.60;92.06;100591.73;105440;1256;83278;-57
2023/06/26 03:38:46;;;;;;;10.70;7.40;;;;;;;14.69;92.37;100588.06;105467;1257;71983;-59
2023/06/26 03:41:15;;;;;;;10.20;7.70;;;;;;;14.78;92.17;100588.16;105400;1254;69686;-57
2023/06/26 03:43:43;;;;;;;8.40;6.70;;;;;;;14.86;92.31;100585.08;105463;1254;69193;-56
2023/06/26 03:46:19;;;;;;;11.10;7.60;;;;;;;14.96;92.38;100586.52;105443;1257;74801;-58
2023/06/26 03:48:48;;;;;;;8.80;7.30;;;;;;;15.07;92.56;100586.45;105481;1256;83294;-55
2023/06/26 03:51:17;;;;;;;10.70;7.60;;;;;;;15.16;92.48;100586.69;105363;1253;73886;-58
2023/06/26 03:53:45;;;;;;;7.80;6.80;;;;;;;15.26;92.48;100584.20;105305;1253;69216;-60
2023/06/26 03:56:14;;;;;;;8.10;7.30;;;;;;;15.34;92.35;100583.41;105387;1254;69215;-55
2023/06/26 03:58:43;;;;;;;10.00;7.40;;;;;;;15.44;92.38;100582.73;105520;1257;73144;-55
2023/06/26 04:01:12;;;;;;;11.40;7.30;;;;;;;15.55;92.50;100580.92;105472;1257;83590;-54
2023/06/26 04:03:41;;;;;;;10.20;7.30;;;;;;;15.67;92.75;100578.84;105437;1257;73885;-60
2023/06/26 04:06:12;;;;;;;9.50;7.60;;;;;;;15.80;92.68;100579.90;105425;1252;69221;-57
2023/06/26 04:08:40;;;;;;;12.20;8.00;;;;;;;15.90;92.45;100580.41;105404;1254;69088;-57
2023/06/26 04:11:09;;;;;;;9.00;7.20;;;;;;;15.99;92.31;100579.71;105228;1253;74522;-56
2023/06/26 04:13:38;;;;;;;11.60;7.30;;;;;;;16.09;92.24;100581.43;105405;1256;83400;-56
2023/06/26 04:16:06;;;;;;;11.70;7.30;;;;;;;16.20;92.16;100583.29;105365;1257;72966;-58
2023/06/26 04:18:35;;;;;;;12.50;8.10;;;;;;;16.33;92.34;100581.13;105418;1257;69159;-57
2023/06/26 04:21:24;;;;;;;10.80;7.70;;;;;;;16.41;92.08;100579.90;105486;1257;69191;-56
2023/06/26 04:23:53;;;;;;;12.60;8.20;;;;;;;16.48;91.61;100579.19;105492;1257;73543;-57
2023/06/26 04:26:24;;;;;;;9.50;7.80;;;;;;;16.52;91.32;100578.39;105428;1256;83698;-56
2023/06/26 04:28:54;;;;;;;11.30;8.20;;;;;;;16.58;91.28;100574.86;105482;1253;73737;-54
2023/06/26 04:31:22;;;;;;;11.40;8.30;;;;;;;16.66;91.39;100573.35;105491;1254;69200;-59
2023/06/26 04:33:54;;;;;;;11.30;7.90;;;;;;;16.75;91.38;100571.42;105488;1256;69266;-58
2023/06/26 04:36:23;;;;;;;10.70;7.20;;;;;;;16.83;91.28;100570.05;105486;1253;73944;-56
2023/06/26 04:38:51;;;;;;;13.00;7.40;;;;;;;16.91;91.13;100569.39;105504;1256;83353;-56
2023/06/26 04:41:20;;;;;;;12.00;7.40;;;;;;;16.98;91.07;100566.15;105540;1256;73723;-60
2023/06/26 04:43:51;;;;;;;11.30;7.40;;;;;;;17.08;91.24;100569.23;105630;1255;69296;-56
2023/06/26 04:46:19;;;;;;;11.80;7.70;;;;;;;17.20;91.37;100563.73;105566;1253;69206;-58
2023/06/26 04:48:48;;;;;;;8.40;7.40;;;;;;;17.33;91.39;100563.11;105637;1253;73511;-60
2023/06/26 04:51:20;;;;;;;11.50;8.00;;;;;;;17.45;91.39;100567.30;105370;1253;82627;-52
2023/06/26 04:53:49;;;;;;;9.60;7.60;;;;;;;17.54;91.30;100568.85;105608;1256;72523;-53
2023/06/26 04:56:17;;;;;;;8.50;7.60;;;;;;;17.64;91.35;100570.49;105566;1253;69084;-53
2023/06/26 04:58:45;;;;;;;8.30;7.50;;;;;;;17.77;91.44;100569.88;105761;1252;69106;-53
2023/06/26 05:01:15;;;;;;;9.20;7.50;;;;;;;17.90;91.24;100565.15;105457;1253;74788;-54
2023/06/26 05:03:45;;;;;;;9.00;7.80;;;;;;;18.03;91.15;100567.98;105727;1256;83435;-54
2023/06/26 05:06:13;;;;;;;9.20;7.40;;;;;;;18.16;90.95;100566.30;105721;1253;73609;-54
2023/06/26 05:08:42;;;;;;;8.80;6.70;;;;;;;18.28;90.51;100559.83;105627;1253;69243;-53
2023/06/26 05:11:10;;;;;;;8.60;6.60;;;;;;;18.40;90.45;100559.20;105430;1257;69874;-50
2023/06/26 05:13:39;;;;;;;8.90;7.30;;;;;;;18.54;90.81;100556.66;105802;1253;75407;-52
2023/06/26 05:16:09;;;;;;;10.20;7.50;;;;;;;18.66;90.58;100553.36;105676;1253;81935;-52
2023/06/26 05:18:37;;;;;;;13.80;8.60;;;;;;;18.79;90.70;100557.10;105514;1253;73570;-57
2023/06/26 05:21:06;;;;;;;10.50;7.70;;;;;;;18.95;90.87;100556.92;105657;1256;69189;-56
2023/06/26 05:23:35;;;;;;;10.10;7.40;;;;;;;19.10;90.57;100557.65;105450;1257;69149;-55
2023/06/26 05:26:04;;;;;;;10.30;7.80;;;;;;;19.24;90.30;100557.16;105512;1253;75044;-53
2023/06/26 05:28:32;;;;;;;9.20;7.70;;;;;;;19.40;90.02;100560.13;105588;1257;83108;-57
2023/06/26 05:31:02;;;;;;;9.20;7.30;;;;;;;19.53;89.69;100558.31;105663;1254;73815;-56
2023/06/26 05:33:36;;;;;;;8.90;7.90;;;;;;;19.66;89.52;100560.02;105695;1255;69125;-55
2023/06/26 05:36:06;;;;;;;9.90;6.70;;;;;;;19.80;89.14;100557.44;105759;1253;69107;-54
2023/06/26 05:38:35;;;;;;;;;;;;;;;19.90;88.79;100556.02;105416;1253;73868;-53
2023/06/26 05:41:03;;;;;;;8.60;7.40;;;;;;;19.97;88.15;100554.25;105676;1255;83357;-51
2023/06/26 05:43:32;;;;;;;10.10;7.70;;;;;;;20.01;88.16;100551.76;105497;1253;73805;-54
2023/06/26 05:46:00;;;;;;;10.30;7.80;;;;;;;20.09;88.10;100552.50;105584;1253;69181;-54
2023/06/26 05:48:29;;;;;;;8.90;7.10;;;;;;;20.13;87.87;100552.15;105405;1257;69219;-53
2023/06/26 05:50:57;;;;;;;9.40;6.70;;;;;;;20.19;87.56;100549.61;105443;1254;75022;-57
2023/06/26 05:53:26;;;;;;;9.00;7.20;;;;;;;20.25;87.33;100548.44;105580;1253;83709;-55
2023/06/26 05:55:55;;;;;;;9.20;6.80;;;;;;;20.31;87.34;100547.58;105754;1253;71936;-56
2023/06/26 05:58:29;;;;;;;8.80;6.90;;;;;;;20.38;87.04;100550.67;105762;1253;69199;-55
2023/06/26 06:00:57;;;;;;;10.70;6.70;;;;;;;20.43;86.73;100550.61;105801;1254;69167;-54
2023/06/26 06:03:26;;;;;;;8.00;6.70;;;;;;;20.49;86.53;100553.70;105615;1253;74719;-54
2023/06/26 06:05:55;;;;;;;7.40;6.60;;;;;;;20.55;86.14;100547.64;105699;1256;83360;-56
2023/06/26 06:08:23;;;;;;;9.00;6.60;;;;;;;20.61;85.92;100549.11;105309;1252;444679;-55
2023/06/26 06:10:53;;;;;;;8.00;6.50;;;;;;;20.67;85.83;100548.77;105745;1256;69182;-56
2023/06/26 06:13:21;;;;;;;10.40;6.70;;;;;;;20.75;85.43;100548.52;105687;1255;69075;-57
2023/06/26 06:15:49;;;;;;;7.10;6.10;;;;;;;20.83;85.35;100549.51;105649;1253;74525;-54
2023/06/26 06:18:18;;;;;;;7.20;6.40;;;;;;;20.92;85.22;100545.29;105595;1256;83924;-55
2023/06/26 06:20:46;;;;;;;7.90;6.30;;;;;;;21.01;85.39;100547.41;105477;1255;72658;-56
2023/06/26 06:23:14;;;;;;;8.80;6.60;;;;;;;21.12;85.51;100540.52;105657;1255;69256;-55
2023/06/26 06:25:43;;;;;;;9.00;6.70;;;;;;;21.23;85.15;100540.58;105627;1252;69183;-57
2023/06/26 06:28:11;;;;;;;7.80;7.00;;;;;;;21.32;84.68;100540.01;105741;1253;74591;-56
2023/06/26 06:30:40;;;;;;;8.00;6.10;;;;;;;21.40;84.54;100540.23;105703;1257;83538;-57
2023/06/26 06:33:14;;;;;;;9.40;6.50;;;;;;;21.50;84.19;100540.02;105692;1253;72622;-54
2023/06/26 06:35:42;;;;;;;11.10;6.30;;;;;;;21.59;83.75;100541.42;105870;1255;69222;-56
2023/06/26 06:38:11;;;;;;;7.00;6.20;;;;;;;21.69;83.55;100541.83;105671;1254;69122;-54
2023/06/26 06:40:39;;;;;;;7.40;6.00;;;;;;;21.80;82.99;100539.39;105531;1252;75068;-52
2023/06/26 06:43:08;;;;;;;6.80;6.10;;;;;;;21.91;82.43;100538.30;105686;1255;83651;-54
2023/06/26 06:45:37;;;;;;;10.30;5.90;;;;;;;22.03;82.18;100537.82;105576;1256;72688;-55
2023/06/26 06:48:06;;;;;;;15.90;9.80;;;;;;;22.12;81.69;100534.73;105566;1253;69100;-54
2023/06/26 06:50:34;;;;;;;36.10;17.30;;;;;;;22.20;81.53;100533.89;105644;1255;69134;-56
2023/06/26 06:53:03;;;;;;;13.70;8.20;;;;;;;22.29;80.98;100533.03;105490;1253;74816;-55
2023/06/26 06:55:32;;;;;;;9.90;5.30;;;;;;;22.36;80.56;100535.05;105543;1255;82516;-55
2023/06/26 06:58:00;;;;;;;8.90;7.10;;;;;;;22.43;80.16;100534.30;105656;1256;73917;-58
2023/06/26 07:00:32;;;;;;;6.90;5.80;;;;;;;22.48;79.78;100526.93;105720;1253;69623;-54
2023/06/26 07:03:01;;;;;;;20.80;11.40;;;;;;;22.56;79.51;100523.93;105614;1256;69276;-53
2023/06/26 07:05:30;;;;;;;21.40;10.80;;;;;;;22.64;79.72;100522.55;105634;1253;74831;-54
2023/06/26 07:07:58;;;;;;;14.70;8.70;;;;;;;22.72;79.46;100520.13;105780;1255;83370;-55
2023/06/26 07:10:30;;;;;;;8.50;6.30;;;;;;;22.82;79.12;100517.64;105780;1254;73641;-54
2023/06/26 07:12:58;;;;;;;5.60;5.00;;;;;;;22.90;78.22;100519.71;105792;1256;69179;-53
2023/06/26 07:15:27;;;;;;;7.80;5.40;;;;;;;22.95;77.38;100512.59;105694;1255;69215;-53
2023/06/26 07:17:55;;;;;;;6.70;5.80;;;;;;;23.03;77.62;100514.77;105763;1255;73846;-56
2023/06/26 07:20:24;;;;;;;6.60;5.70;;;;;;;23.11;76.70;100512.60;105594;1255;83722;-54
2023/06/26 07:22:53;;;;;;;5.80;5.00;;;;;;;23.19;75.85;100511.75;105751;1253;73885;-56
2023/06/26 07:25:21;;;;;;;5.70;4.90;;;;;;;23.27;74.77;100510.18;105673;1256;69203;-52
2023/06/26 07:27:50;;;;;;;7.50;5.30;;;;;;;23.33;74.18;100513.02;105679;1254;69108;-53
2023/06/26 07:30:18;;;;;;;6.50;5.10;;;;;;;23.41;73.54;100512.87;105591;1255;73939;-53
2023/06/26 07:32:46;;;;;;;5.70;5.20;;;;;;;23.47;72.77;100509.81;105660;1255;83131;-54
2023/06/26 07:35:15;;;;;;;6.10;5.20;;;;;;;23.51;72.07;100506.36;105738;1253;73926;-56
2023/06/26 07:37:44;;;;;;;5.70;5.10;;;;;;;23.54;71.39;100507.20;105697;1254;69203;-54
2023/06/26 07:40:13;;;;;;;6.60;5.70;;;;;;;23.56;70.89;100507.17;105607;1256;69206;-55
2023/06/26 07:42:41;;;;;;;7.40;5.30;;;;;;;23.58;70.76;100507.21;105689;1256;75295;-56
2023/06/26 07:45:12;;;;;;;7.70;6.20;;;;;;;23.62;70.40;100503.67;105605;1257;83283;-55
2023/06/26 07:47:41;;;;;;;6.70;5.10;;;;;;;23.67;69.95;100503.88;105717;1253;74258;-54
2023/06/26 07:50:09;;;;;;;5.10;4.40;;;;;;;23.70;69.10;100499.16;105789;1256;69197;-56
2023/06/26 07:52:38;;;;;;;6.50;5.00;;;;;;;23.71;68.54;100500.64;105769;1253;69114;-57
2023/06/26 07:55:06;;;;;;;5.40;4.90;;;;;;;23.72;68.39;100498.65;105867;1253;74682;-56
2023/06/26 07:57:35;;;;;;;6.00;5.40;;;;;;;23.71;67.76;100497.85;105739;1256;83859;-55
2023/06/26 08:00:06;;;;;;;6.30;5.10;;;;;;;23.71;67.50;100496.95;105579;1253;73473;-56
2023/06/26 08:02:41;;;;;;;5.40;4.80;;;;;;;23.79;67.06;100494.59;105545;1252;69210;-57
2023/06/26 08:05:10;;;;;;;5.80;5.10;;;;;;;23.91;67.12;100492.27;105659;1256;69177;-57
2023/06/26 08:07:39;;;;;;;6.80;5.30;;;;;;;24.05;66.87;100490.65;105535;1253;75067;-56
2023/06/26 08:10:08;;;;;;;5.40;4.70;;;;;;;24.20;67.08;100490.85;105747;1255;83165;-57
2023/06/26 08:12:40;;;;;;;6.40;5.40;;;;;;;24.33;66.75;100484.32;105648;1253;73651;-57
2023/06/26 08:15:09;;;;;;;5.40;4.90;;;;;;;24.42;66.15;100486.67;105621;1255;69174;-58
2023/06/26 08:17:38;;;;;;;6.00;4.70;;;;;;;24.54;66.11;100488.17;105566;1256;69164;-57
2023/06/26 08:20:10;;;;;;;5.60;4.60;;;;;;;24.69;65.73;100488.41;105603;1253;74963;-57
2023/06/26 08:22:39;;;;;;;5.90;4.90;;;;;;;24.81;64.93;100489.10;105696;1256;83693;-56
2023/06/26 08:25:08;;;;;;;5.50;4.70;;;;;;;24.90;64.04;100478.20;105655;1253;73731;-56
2023/06/26 08:27:37;;;;;;;5.40;4.90;;;;;;;25.01;63.82;100479.05;105711;1253;69293;-57
2023/06/26 08:30:06;;;;;;;6.50;5.40;;;;;;;25.13;63.57;100482.77;105520;1253;69334;-57
2023/06/26 08:32:35;;;;;;;5.20;4.70;;;;;;;25.28;63.06;100482.39;105604;1253;74948;-57
2023/06/26 08:35:05;;;;;;;6.40;4.80;;;;;;;25.44;62.74;100475.79;105633;1255;83585;-57
2023/06/26 08:37:34;;;;;;;5.50;4.20;;;;;;;25.67;62.96;100479.85;105648;1253;73861;-57
2023/06/26 08:40:03;;;;;;;5.20;4.40;;;;;;;25.91;61.94;100481.05;105620;1255;69203;-58
2023/06/26 08:42:32;;;;;;;5.40;4.90;;;;;;;26.01;60.82;100478.77;105645;1253;69148;-57
2023/06/26 08:45:00;;;;;;;5.00;4.50;;;;;;;26.06;60.29;100475.77;105667;1256;75090;-57
2023/06/26 08:47:30;;;;;;;;;;;;;;;26.14;60.04;100473.52;105791;1255;83459;-57
2023/06/26 08:50:10;;;;;;;5.10;4.50;;;;;;;26.25;60.02;100472.33;105566;1255;74170;-57
2023/06/26 08:53:07;;;;;;;6.00;4.50;;;;;;;26.25;59.12;100471.09;105715;1256;69266;-57
2023/06/26 08:55:38;;;;;;;5.30;4.30;;;;;;;26.32;59.10;100472.04;105403;1256;69237;-55
2023/06/26 08:58:07;;;;;;;5.50;4.50;;;;;;;26.39;58.90;100474.17;105647;1257;74988;-56
2023/06/26 09:00:35;;;;;;;5.20;4.70;;;;;;;26.35;58.23;100469.23;105391;1253;82755;-54
2023/06/26 09:03:04;;;;;;;;;;;;;;;26.27;57.97;100471.27;106192;1257;72660;-56
2023/06/26 09:05:33;;;;;;;5.20;4.70;;;;;;;26.19;57.45;100466.91;105692;1253;69208;-56
2023/06/26 09:08:03;;;;;;;5.50;5.00;;;;;;;26.19;57.83;100465.09;105598;1253;69077;-58
2023/06/26 09:10:31;;;;;;;4.90;4.40;;;;;;;26.32;57.74;100463.66;105667;1253;75039;-56
2023/06/26 09:13:03;;;;;;;7.60;4.20;;;;;;;26.38;57.38;100462.98;105604;1255;83181;-55
2023/06/26 09:15:42;;;;;;;5.80;5.30;;;;;;;26.50;57.51;100460.65;105621;1253;74174;-56
2023/06/26 09:18:12;;;;;;;4.90;4.30;;;;;;;26.62;56.98;100457.11;105521;1257;69119;-57
2023/06/26 09:20:40;;;;;;;5.80;4.50;;;;;;;26.71;56.70;100459.61;105609;1256;69482;-60
2023/06/26 09:23:09;;;;;;;7.00;4.70;;;;;;;26.78;56.49;100457.31;105452;1253;74589;-59
2023/06/26 09:25:39;;;;;;;5.20;4.70;;;;;;;26.80;55.78;100455.45;105527;1256;83121;-57
2023/06/26 09:28:09;;;;;;;7.90;5.00;;;;;;;26.83;55.65;100453.86;107089;1253;73587;-57
2023/06/26 09:30:38;;;;;;;5.90;4.70;;;;;;;26.84;55.43;100450.52;107827;1253;69193;-58
2023/06/26 09:33:17;;;;;;;5.70;4.80;;;;;;;26.88;55.01;100447.79;105558;1256;69229;-59
2023/06/26 09:35:47;;;;;;;4.90;4.40;;;;;;;26.99;54.96;100447.93;105561;1253;75118;-61
2023/06/26 09:38:17;;;;;;;5.80;4.70;;;;;;;27.09;54.99;100444.68;105539;1253;83297;-63
2023/06/26 09:40:46;;;;;;;4.70;4.10;;;;;;;27.23;54.41;100443.17;105518;1253;73929;-64
2023/06/26 09:43:15;;;;;;;5.20;4.10;;;;;;;27.44;54.48;100440.06;105535;1256;69271;-61
2023/06/26 09:45:43;;;;;;;21.00;6.40;;;;;;;27.68;54.48;100440.70;105496;1257;69202;-59
2023/06/26 09:48:13;;;;;;;5.00;4.30;;;;;;;27.81;53.77;100439.47;105600;1253;74866;-59
2023/06/26 09:50:42;;;;;;;4.90;4.30;;;;;;;27.82;53.33;100437.38;105541;1253;83214;-58
2023/06/26 09:53:29;;;;;;;7.00;4.70;;;;;;;27.87;52.86;100437.73;105556;1256;73698;-59
2023/06/26 09:55:57;;;;;;;;;;;;;;;27.83;52.16;100440.52;105553;1253;69225;-60
2023/06/26 09:58:27;;;;;;;4.80;4.20;;;;;;;27.72;51.76;100434.82;105575;1256;69194;-59
2023/06/26 10:00:55;;;;;;;6.20;4.60;;;;;;;27.80;51.76;100431.38;105538;1257;74643;-59
2023/06/26 10:03:24;;;;;;;5.30;4.60;;;;;;;27.95;52.00;100433.80;105565;1256;83258;-60
2023/06/26 10:05:53;;;;;;;5.70;4.60;;;;;;;28.11;51.93;100428.84;105567;1253;73695;-60
2023/06/26 10:08:22;;;;;;;4.70;4.30;;;;;;;28.33;51.89;100430.70;105584;1255;69216;-61
2023/06/26 10:10:50;;;;;;;6.10;4.50;;;;;;;28.50;51.41;100427.96;105558;1253;69244;-60
2023/06/26 10:13:22;;;;;;;;;;;;;;;28.59;50.67;100427.40;105557;1255;75098;-59
2023/06/26 10:15:51;;;;;;;6.70;4.30;;;;;;;28.81;50.67;100423.11;105534;1255;83413;-59
2023/06/26 10:18:21;;;;;;;;;;;;;;;28.94;49.78;100424.06;105572;1253;73294;-58
2023/06/26 10:20:54;;;;;;;5.50;3.80;;;;;;;29.07;49.49;100414.98;105530;1256;69192;-60
2023/06/26 10:23:23;;;;;;;5.70;4.10;;;;;;;29.17;49.57;100413.02;105592;1255;69516;-59
2023/06/26 10:25:52;;;;;;;5.70;4.50;;;;;;;29.08;49.16;100415.55;105592;1255;74013;-61
2023/06/26 10:28:21;;;;;;;6.50;4.10;;;;;;;28.93;48.98;100406.33;105546;1254;83345;-59
2023/06/26 10:30:50;;;;;;;;;;;;;;;29.08;49.19;100406.77;105549;1255;73779;-58
2023/06/26 10:33:19;;;;;;;;;;;;;;;29.31;49.00;100404.08;105568;1256;69225;-60
2023/06/26 10:35:48;;;;;;;4.80;4.30;;;;;;;29.44;48.82;100405.31;105528;1256;69201;-61
2023/06/26 10:38:16;;;;;;;4.90;4.00;;;;;;;29.19;48.06;100409.99;105615;1255;73909;-63
2023/06/26 10:40:46;;;;;;;5.00;4.60;;;;;;;28.94;47.92;100406.19;105572;1253;83164;-58
2023/06/26 10:43:16;;;;;;;5.10;3.90;;;;;;;28.77;47.78;100402.17;105565;1253;72507;-61
2023/06/26 10:45:46;;;;;;;4.80;4.40;;;;;;;28.63;48.01;100407.73;105546;1253;69101;-59
2023/06/26 10:48:15;;;;;;;5.40;4.20;;;;;;;28.60;48.01;100408.15;105532;1253;69526;-61
2023/06/26 10:50:47;;;;;;;;;;;;;;;28.95;48.21;100401.56;105566;1253;75407;-62
2023/06/26 10:53:24;;;;;;;7.30;3.90;;;;;;;29.51;48.06;100396.25;105523;1256;83526;-58
2023/06/26 10:55:56;;;;;;;4.90;4.20;;;;;;;30.09;47.50;100389.32;105534;1253;72796;-60
2023/06/26 10:58:41;;;;;;;4.10;3.80;;;;;;;30.52;46.67;100389.19;105547;1253;69091;-61
2023/06/26 11:01:11;;;;;;;5.40;4.20;;;;;;;30.87;46.00;100386.88;105511;1256;69201;-58
2023/06/26 11:03:52;;;;;;;4.90;3.70;;;;;;;31.09;45.25;100386.89;105529;1255;74266;-61
2023/06/26 11:06:21;;;;;;;4.00;3.70;;;;;;;30.91;44.58;100381.18;105506;1253;82237;-60
2023/06/26 11:08:53;;;;;;;4.00;3.60;;;;;;;30.54;44.05;100382.13;105489;1255;73681;-58
2023/06/26 11:11:51;;;;;;;4.40;4.00;;;;;;;29.97;43.75;100377.27;105527;1253;69337;-59
2023/06/26 11:14:24;;;;;;;4.70;4.20;;;;;;;29.62;44.40;100377.14;105538;1253;69095;-59
2023/06/26 11:16:55;;;;;;;5.20;3.60;;;;;;;29.53;44.54;100378.44;105524;1253;75599;-59
2023/06/26 11:19:26;;;;;;;5.40;3.80;;;;;;;29.94;45.38;100374.43;105537;1253;82117;-62
2023/06/26 11:22:05;;;;;;;3.80;3.50;;;;;;;30.51;45.29;100366.98;105536;1253;73802;-62
2023/06/26 11:24:34;;;;;;;7.10;3.40;;;;;;;31.04;44.46;100365.00;105547;1255;69453;-60
2023/06/26 11:27:03;;;;;;;;;;;;;;;31.47;43.37;100368.94;105602;1256;69133;-60
2023/06/26 11:29:32;;;;;;;3.70;3.40;;;;;;;31.78;42.53;100366.49;105546;1253;75197;-58
2023/06/26 11:32:02;;;;;;;4.30;3.20;;;;;;;32.07;42.07;100361.56;105539;1253;82466;-59
2023/06/26 11:34:33;;;;;;;3.50;3.10;;;;;;;32.47;41.37;100356.01;105546;1255;73561;-60